Terminal Aerodrome Forecast
Issued by NWS

Home | Current Version | Previous Version | Graphics & Text | Print | Product List | Glossary On
Versions: 1 2 3 4 5 6 7 8 9 10 11 12 13 14 15 16 17 18 19 20 21 22 23 24 25 26 27 28 29
000
FTUS43 KABR 230400 AAA
TAFMBG
TAF AMD
KMBG 230442Z 2305/2324 01007KT P6SM FEW060 BKN080
     FM230900 07013KT P6SM VCTS OVC025CB
     FM231200 07011KT 6SM RA BR OVC006
     FM231700 07016KT 4SM RA BR OVC012
     FM232200 13016KT P6SM VCSH OVC015=

USA.gov is the U.S. government's official web portal to all federal, state and local government web resources and services.